Terminal Aerodrome Forecast
Issued by NWS

Home | Current Version | Previous Version | Text Only | Print | Product List | Glossary On
Versions: 1 2 3 4 5 6 7 8 9 10 11 12 13 14 15 16
000
FTUS43 KGRB 230859 AAA
TAFAUW
TAF AMD
KAUW 230859Z 2309/2406 VRB03KT 5SM BR SCT002 BKN100
      TEMPO 2309/2311 1SM BR BKN002
     FM231200 28007KT P6SM SCT090
     FM231600 29012G20KT P6SM SCT045
     FM240000 30007KT P6SM SCT050
     FM240400 30006KT P6SM SCT070=

USA.gov is the U.S. government's official web portal to all federal, state and local government web resources and services.